BIBI weather

Baeir Airport
Baeir, Westfjords, Iceland

Public forecast

Using degrees Celsius for public forecast. Weather courtesy of forecast.io.

Closest aviation weather report (METAR) to Baeir Airport

Closest report is Ísafjörður Airport, 14.1 nm (26.0 km) W. Retrieved 2020/05/26 16:00 UTC (42 minutes ago):

BIIS 261600Z 24016KT 9999 SCT030 09/M02 Q1010

Closest aviation forecast (TAF) to Baeir Airport

Closest forecast is Akureyri Airport, 113.4 nm (209.9 km) ESE. Retrieved 2020/05/26 15:49 UTC (53 minutes ago):

TAF BIAR 261343Z 2615/2715 35008KT 9999 BKN050 TX10/2615Z TN05/2704Z BECMG 2617/2619 19015G25KT TEMPO 2622/2715 24020G35KT PROB40 TEMPO 2623/2704 24025G45KT